sensor_id;sensor_type;location;lat;lon;timestamp;P1;durP1;ratioP1;P2;durP2;ratioP2
14021;SDS011;7086;48.116;11.580;2023-02-18T00:00:20;1.55;;;1.45;;
14021;SDS011;7086;48.116;11.580;2023-02-18T00:02:50;1.60;;;1.50;;
14021;SDS011;7086;48.116;11.580;2023-02-18T00:05:19;1.60;;;1.50;;
14021;SDS011;7086;48.116;11.580;2023-02-18T00:07:51;1.20;;;1.20;;
14021;SDS011;7086;48.116;11.580;2023-02-18T00:10:34;1.45;;;1.35;;
14021;SDS011;7086;48.116;11.580;2023-02-18T00:13:22;3.63;;;1.50;;
14021;SDS011;7086;48.116;11.580;2023-02-18T00:15:51;1.88;;;1.77;;
14021;SDS011;7086;48.116;11.580;2023-02-18T00:18:31;2.90;;;1.60;;
14021;SDS011;7086;48.116;11.580;2023-02-18T00:21:08;1.70;;;1.60;;
14021;SDS011;7086;48.116;11.580;2023-02-18T00:23:37;1.50;;;1.50;;
14021;SDS011;7086;48.116;11.580;2023-02-18T00:26:19;1.58;;;1.48;;
14021;SDS011;7086;48.116;11.580;2023-02-18T00:28:47;1.35;;;1.25;;
14021;SDS011;7086;48.116;11.580;2023-02-18T00:31:17;1.70;;;1.60;;
14021;SDS011;7086;48.116;11.580;2023-02-18T00:33:49;1.70;;;1.60;;
14021;SDS011;7086;48.116;11.580;2023-02-18T00:36:18;1.20;;;1.15;;
14021;SDS011;7086;48.116;11.580;2023-02-18T00:38:48;1.40;;;1.30;;
14021;SDS011;7086;48.116;11.580;2023-02-18T00:41:18;1.30;;;1.20;;
14021;SDS011;7086;48.116;11.580;2023-02-18T00:43:47;1.38;;;1.20;;
14021;SDS011;7086;48.116;11.580;2023-02-18T00:46:15;1.10;;;1.10;;
14021;SDS011;7086;48.116;11.580;2023-02-18T00:48:43;1.20;;;1.20;;
14021;SDS011;7086;48.116;11.580;2023-02-18T00:51:14;1.17;;;1.15;;
14021;SDS011;7086;48.116;11.580;2023-02-18T00:53:42;1.45;;;1.38;;
14021;SDS011;7086;48.116;11.580;2023-02-18T00:56:10;1.38;;;1.30;;
14021;SDS011;7086;48.116;11.580;2023-02-18T00:58:39;2.15;;;1.30;;
14021;SDS011;7086;48.116;11.580;2023-02-18T01:01:20;2.03;;;1.20;;
14021;SDS011;7086;48.116;11.580;2023-02-18T01:03:49;1.10;;;1.10;;
14021;SDS011;7086;48.116;11.580;2023-02-18T01:06:19;1.15;;;1.10;;
14021;SDS011;7086;48.116;11.580;2023-02-18T01:08:47;1.77;;;1.30;;
14021;SDS011;7086;48.116;11.580;2023-02-18T01:11:15;1.92;;;1.45;;
14021;SDS011;7086;48.116;11.580;2023-02-18T01:13:43;1.55;;;1.45;;
14021;SDS011;7086;48.116;11.580;2023-02-18T01:16:11;1.58;;;1.48;;
14021;SDS011;7086;48.116;11.580;2023-02-18T01:18:41;2.72;;;1.35;;
14021;SDS011;7086;48.116;11.580;2023-02-18T01:21:09;1.45;;;1.35;;
14021;SDS011;7086;48.116;11.580;2023-02-18T01:23:39;1.90;;;1.63;;
14021;SDS011;7086;48.116;11.580;2023-02-18T01:26:08;1.38;;;1.27;;
14021;SDS011;7086;48.116;11.580;2023-02-18T01:28:37;1.60;;;1.50;;
14021;SDS011;7086;48.116;11.580;2023-02-18T01:31:07;1.73;;;1.63;;
14021;SDS011;7086;48.116;11.580;2023-02-18T01:33:40;1.52;;;1.50;;
14021;SDS011;7086;48.116;11.580;2023-02-18T01:36:09;1.73;;;1.63;;
14021;SDS011;7086;48.116;11.580;2023-02-18T01:38:39;1.60;;;1.50;;
14021;SDS011;7086;48.116;11.580;2023-02-18T01:41:07;1.42;;;1.42;;
14021;SDS011;7086;48.116;11.580;2023-02-18T01:43:35;2.10;;;2.00;;
14021;SDS011;7086;48.116;11.580;2023-02-18T01:46:12;1.27;;;1.27;;
14021;SDS011;7086;48.116;11.580;2023-02-18T01:48:44;1.80;;;1.70;;
14021;SDS011;7086;48.116;11.580;2023-02-18T01:51:17;1.35;;;1.35;;
14021;SDS011;7086;48.116;11.580;2023-02-18T01:53:54;1.42;;;1.42;;
14021;SDS011;7086;48.116;11.580;2023-02-18T01:56:28;1.80;;;1.70;;
14021;SDS011;7086;48.116;11.580;2023-02-18T01:59:02;1.67;;;1.60;;
14021;SDS011;7086;48.116;11.580;2023-02-18T02:01:35;1.75;;;1.65;;
14021;SDS011;7086;48.116;11.580;2023-02-18T02:04:04;1.85;;;1.75;;
14021;SDS011;7086;48.116;11.580;2023-02-18T02:06:31;1.90;;;1.80;;
14021;SDS011;7086;48.116;11.580;2023-02-18T02:09:02;1.67;;;1.58;;
14021;SDS011;7086;48.116;11.580;2023-02-18T02:11:43;1.50;;;1.38;;
14021;SDS011;7086;48.116;11.580;2023-02-18T02:14:53;1.75;;;1.65;;
14021;SDS011;7086;48.116;11.580;2023-02-18T02:17:53;1.63;;;1.52;;
14021;SDS011;7086;48.116;11.580;2023-02-18T02:21:02;1.50;;;1.40;;
14021;SDS011;7086;48.116;11.580;2023-02-18T02:27:45;1.40;;;1.30;;
14021;SDS011;7086;48.116;11.580;2023-02-18T02:34:20;1.30;;;1.30;;
14021;SDS011;7086;48.116;11.580;2023-02-18T02:37:13;1.10;;;1.10;;
14021;SDS011;7086;48.116;11.580;2023-02-18T02:39:53;1.20;;;1.10;;
14021;SDS011;7086;48.116;11.580;2023-02-18T02:42:34;1.52;;;1.38;;
14021;SDS011;7086;48.116;11.580;2023-02-18T02:45:15;1.10;;;1.10;;
14021;SDS011;7086;48.116;11.580;2023-02-18T02:47:54;1.10;;;1.10;;
14021;SDS011;7086;48.116;11.580;2023-02-18T02:50:33;1.30;;;1.10;;
14021;SDS011;7086;48.116;11.580;2023-02-18T02:53:12;1.05;;;1.05;;
14021;SDS011;7086;48.116;11.580;2023-02-18T02:55:47;1.10;;;1.10;;
14021;SDS011;7086;48.116;11.580;2023-02-18T02:58:15;0.90;;;0.90;;
14021;SDS011;7086;48.116;11.580;2023-02-18T03:00:47;1.30;;;1.20;;
14021;SDS011;7086;48.116;11.580;2023-02-18T03:06:58;0.98;;;0.90;;
14021;SDS011;7086;48.116;11.580;2023-02-18T03:09:55;0.95;;;0.95;;
14021;SDS011;7086;48.116;11.580;2023-02-18T03:12:44;1.00;;;1.00;;
14021;SDS011;7086;48.116;11.580;2023-02-18T03:15:20;0.80;;;0.80;;
14021;SDS011;7086;48.116;11.580;2023-02-18T03:17:54;0.85;;;0.85;;
14021;SDS011;7086;48.116;11.580;2023-02-18T03:20:30;0.93;;;0.88;;
14021;SDS011;7086;48.116;11.580;2023-02-18T03:23:04;0.90;;;0.90;;
14021;SDS011;7086;48.116;11.580;2023-02-18T03:25:36;0.95;;;0.95;;
14021;SDS011;7086;48.116;11.580;2023-02-18T03:28:06;0.80;;;0.80;;
14021;SDS011;7086;48.116;11.580;2023-02-18T03:30:40;1.00;;;1.00;;
14021;SDS011;7086;48.116;11.580;2023-02-18T03:33:13;0.90;;;0.90;;
14021;SDS011;7086;48.116;11.580;2023-02-18T03:35:46;0.73;;;0.73;;
14021;SDS011;7086;48.116;11.580;2023-02-18T03:38:18;1.02;;;0.93;;
14021;SDS011;7086;48.116;11.580;2023-02-18T03:40:51;0.90;;;0.90;;
14021;SDS011;7086;48.116;11.580;2023-02-18T03:43:18;0.98;;;0.98;;
14021;SDS011;7086;48.116;11.580;2023-02-18T03:45:46;1.10;;;1.10;;
14021;SDS011;7086;48.116;11.580;2023-02-18T03:48:14;0.70;;;0.70;;
14021;SDS011;7086;48.116;11.580;2023-02-18T03:50:43;1.10;;;1.00;;
14021;SDS011;7086;48.116;11.580;2023-02-18T03:53:17;0.82;;;0.82;;
14021;SDS011;7086;48.116;11.580;2023-02-18T03:55:45;0.70;;;0.70;;
14021;SDS011;7086;48.116;11.580;2023-02-18T03:58:12;0.73;;;0.73;;
14021;SDS011;7086;48.116;11.580;2023-02-18T04:00:40;1.00;;;1.00;;
14021;SDS011;7086;48.116;11.580;2023-02-18T04:03:08;0.80;;;0.80;;
14021;SDS011;7086;48.116;11.580;2023-02-18T04:05:35;1.55;;;0.90;;
14021;SDS011;7086;48.116;11.580;2023-02-18T04:08:03;0.98;;;0.98;;
14021;SDS011;7086;48.116;11.580;2023-02-18T04:10:32;0.88;;;0.88;;
14021;SDS011;7086;48.116;11.580;2023-02-18T04:12:59;1.13;;;1.10;;
14021;SDS011;7086;48.116;11.580;2023-02-18T04:15:27;1.40;;;1.30;;
14021;SDS011;7086;48.116;11.580;2023-02-18T04:17:55;1.17;;;1.08;;
14021;SDS011;7086;48.116;11.580;2023-02-18T04:20:22;1.60;;;1.50;;
14021;SDS011;7086;48.116;11.580;2023-02-18T04:22:50;1.05;;;1.05;;
14021;SDS011;7086;48.116;11.580;2023-02-18T04:25:18;1.05;;;1.00;;
14021;SDS011;7086;48.116;11.580;2023-02-18T04:27:47;0.98;;;0.98;;
14021;SDS011;7086;48.116;11.580;2023-02-18T04:30:14;0.95;;;0.95;;
14021;SDS011;7086;48.116;11.580;2023-02-18T04:32:41;1.00;;;1.00;;
14021;SDS011;7086;48.116;11.580;2023-02-18T04:35:09;0.90;;;0.90;;
14021;SDS011;7086;48.116;11.580;2023-02-18T04:37:36;0.90;;;0.90;;
14021;SDS011;7086;48.116;11.580;2023-02-18T04:40:05;0.90;;;0.90;;
14021;SDS011;7086;48.116;11.580;2023-02-18T04:42:33;0.85;;;0.85;;
14021;SDS011;7086;48.116;11.580;2023-02-18T04:45:03;0.90;;;0.90;;
14021;SDS011;7086;48.116;11.580;2023-02-18T04:47:31;1.63;;;1.52;;
14021;SDS011;7086;48.116;11.580;2023-02-18T04:49:59;1.15;;;1.10;;
14021;SDS011;7086;48.116;11.580;2023-02-18T04:52:28;1.10;;;1.10;;
14021;SDS011;7086;48.116;11.580;2023-02-18T04:54:59;1.73;;;1.02;;
14021;SDS011;7086;48.116;11.580;2023-02-18T04:57:27;2.05;;;1.15;;
14021;SDS011;7086;48.116;11.580;2023-02-18T04:59:56;1.00;;;1.00;;
14021;SDS011;7086;48.116;11.580;2023-02-18T05:02:25;1.13;;;0.80;;
14021;SDS011;7086;48.116;11.580;2023-02-18T05:04:53;0.80;;;0.80;;
14021;SDS011;7086;48.116;11.580;2023-02-18T05:07:21;0.80;;;0.80;;
14021;SDS011;7086;48.116;11.580;2023-02-18T05:09:48;0.90;;;0.90;;
14021;SDS011;7086;48.116;11.580;2023-02-18T05:12:16;0.85;;;0.85;;
14021;SDS011;7086;48.116;11.580;2023-02-18T05:14:44;0.80;;;0.80;;
14021;SDS011;7086;48.116;11.580;2023-02-18T05:17:12;1.80;;;1.70;;
14021;SDS011;7086;48.116;11.580;2023-02-18T05:19:44;1.20;;;1.20;;
14021;SDS011;7086;48.116;11.580;2023-02-18T05:22:12;0.85;;;0.85;;
14021;SDS011;7086;48.116;11.580;2023-02-18T05:24:44;0.80;;;0.80;;
14021;SDS011;7086;48.116;11.580;2023-02-18T05:27:12;0.70;;;0.70;;
14021;SDS011;7086;48.116;11.580;2023-02-18T05:29:41;0.80;;;0.80;;
14021;SDS011;7086;48.116;11.580;2023-02-18T05:32:23;0.80;;;0.80;;
14021;SDS011;7086;48.116;11.580;2023-02-18T05:34:53;0.70;;;0.70;;
14021;SDS011;7086;48.116;11.580;2023-02-18T05:37:22;0.73;;;0.73;;
14021;SDS011;7086;48.116;11.580;2023-02-18T05:39:49;0.90;;;0.90;;
14021;SDS011;7086;48.116;11.580;2023-02-18T05:42:17;0.88;;;0.88;;
14021;SDS011;7086;48.116;11.580;2023-02-18T05:44:45;0.93;;;0.90;;
14021;SDS011;7086;48.116;11.580;2023-02-18T05:47:13;0.50;;;0.50;;
14021;SDS011;7086;48.116;11.580;2023-02-18T05:49:41;0.50;;;0.50;;
14021;SDS011;7086;48.116;11.580;2023-02-18T05:52:12;0.57;;;0.57;;
14021;SDS011;7086;48.116;11.580;2023-02-18T05:54:40;0.40;;;0.40;;
14021;SDS011;7086;48.116;11.580;2023-02-18T05:57:08;0.52;;;0.52;;
14021;SDS011;7086;48.116;11.580;2023-02-18T05:59:38;0.50;;;0.50;;
14021;SDS011;7086;48.116;11.580;2023-02-18T06:02:07;0.50;;;0.50;;
14021;SDS011;7086;48.116;11.580;2023-02-18T06:04:40;0.55;;;0.55;;
14021;SDS011;7086;48.116;11.580;2023-02-18T06:07:12;0.73;;;0.52;;
14021;SDS011;7086;48.116;11.580;2023-02-18T06:09:39;0.68;;;0.60;;
14021;SDS011;7086;48.116;11.580;2023-02-18T06:12:12;0.43;;;0.43;;
14021;SDS011;7086;48.116;11.580;2023-02-18T06:14:40;0.70;;;0.70;;
14021;SDS011;7086;48.116;11.580;2023-02-18T06:17:08;0.50;;;0.50;;
14021;SDS011;7086;48.116;11.580;2023-02-18T06:19:36;0.75;;;0.43;;
14021;SDS011;7086;48.116;11.580;2023-02-18T06:22:05;0.60;;;0.60;;
14021;SDS011;7086;48.116;11.580;2023-02-18T06:24:35;0.40;;;0.40;;
14021;SDS011;7086;48.116;11.580;2023-02-18T06:27:03;0.50;;;0.50;;
14021;SDS011;7086;48.116;11.580;2023-02-18T06:29:36;0.80;;;0.80;;
14021;SDS011;7086;48.116;11.580;2023-02-18T06:32:06;0.68;;;0.68;;
14021;SDS011;7086;48.116;11.580;2023-02-18T06:34:34;0.47;;;0.47;;
14021;SDS011;7086;48.116;11.580;2023-02-18T06:37:02;0.50;;;0.50;;
14021;SDS011;7086;48.116;11.580;2023-02-18T06:39:29;0.40;;;0.40;;
14021;SDS011;7086;48.116;11.580;2023-02-18T06:42:01;0.43;;;0.43;;
14021;SDS011;7086;48.116;11.580;2023-02-18T06:44:31;0.70;;;0.70;;
14021;SDS011;7086;48.116;11.580;2023-02-18T06:47:00;0.45;;;0.43;;
14021;SDS011;7086;48.116;11.580;2023-02-18T06:49:28;1.38;;;0.50;;
14021;SDS011;7086;48.116;11.580;2023-02-18T06:51:58;0.50;;;0.50;;
14021;SDS011;7086;48.116;11.580;2023-02-18T06:54:27;0.47;;;0.40;;
14021;SDS011;7086;48.116;11.580;2023-02-18T06:56:56;0.68;;;0.68;;
14021;SDS011;7086;48.116;11.580;2023-02-18T06:59:28;0.68;;;0.68;;
14021;SDS011;7086;48.116;11.580;2023-02-18T07:01:55;0.50;;;0.50;;
14021;SDS011;7086;48.116;11.580;2023-02-18T07:04:25;0.57;;;0.57;;
14021;SDS011;7086;48.116;11.580;2023-02-18T07:07:09;0.60;;;0.60;;
14021;SDS011;7086;48.116;11.580;2023-02-18T07:09:37;0.40;;;0.40;;
14021;SDS011;7086;48.116;11.580;2023-02-18T07:12:07;0.63;;;0.50;;
14021;SDS011;7086;48.116;11.580;2023-02-18T07:14:42;0.60;;;0.60;;
14021;SDS011;7086;48.116;11.580;2023-02-18T07:17:11;0.52;;;0.52;;
14021;SDS011;7086;48.116;11.580;2023-02-18T07:19:55;0.60;;;0.60;;
14021;SDS011;7086;48.116;11.580;2023-02-18T07:22:25;1.35;;;0.52;;
14021;SDS011;7086;48.116;11.580;2023-02-18T07:24:54;0.40;;;0.40;;
14021;SDS011;7086;48.116;11.580;2023-02-18T07:27:23;0.60;;;0.60;;
14021;SDS011;7086;48.116;11.580;2023-02-18T07:29:59;0.50;;;0.50;;
14021;SDS011;7086;48.116;11.580;2023-02-18T07:36:07;0.30;;;0.30;;
14021;SDS011;7086;48.116;11.580;2023-02-18T07:40:11;0.40;;;0.40;;
14021;SDS011;7086;48.116;11.580;2023-02-18T07:46:27;0.55;;;0.50;;
14021;SDS011;7086;48.116;11.580;2023-02-18T07:53:16;0.50;;;0.50;;
14021;SDS011;7086;48.116;11.580;2023-02-18T07:55:53;0.50;;;0.50;;
14021;SDS011;7086;48.116;11.580;2023-02-18T07:59:13;1.33;;;0.50;;
14021;SDS011;7086;48.116;11.580;2023-02-18T08:07:11;0.82;;;0.82;;
14021;SDS011;7086;48.116;11.580;2023-02-18T08:09:49;1.67;;;1.58;;
14021;SDS011;7086;48.116;11.580;2023-02-18T08:12:21;1.58;;;1.48;;
14021;SDS011;7086;48.116;11.580;2023-02-18T08:14:59;1.67;;;1.58;;
14021;SDS011;7086;48.116;11.580;2023-02-18T08:17:36;1.65;;;1.10;;
14021;SDS011;7086;48.116;11.580;2023-02-18T08:20:06;0.95;;;0.85;;
14021;SDS011;7086;48.116;11.580;2023-02-18T08:22:37;0.73;;;0.57;;
14021;SDS011;7086;48.116;11.580;2023-02-18T08:25:08;2.17;;;1.02;;
14021;SDS011;7086;48.116;11.580;2023-02-18T08:27:36;1.90;;;0.57;;
14021;SDS011;7086;48.116;11.580;2023-02-18T08:30:10;3.20;;;0.80;;
14021;SDS011;7086;48.116;11.580;2023-02-18T08:32:50;2.05;;;0.50;;
14021;SDS011;7086;48.116;11.580;2023-02-18T08:35:22;1.33;;;0.77;;
14021;SDS011;7086;48.116;11.580;2023-02-18T08:38:06;1.20;;;1.20;;
14021;SDS011;7086;48.116;11.580;2023-02-18T08:40:36;1.42;;;1.33;;
14021;SDS011;7086;48.116;11.580;2023-02-18T08:43:18;1.75;;;1.65;;
14021;SDS011;7086;48.116;11.580;2023-02-18T08:46:01;1.67;;;1.58;;
14021;SDS011;7086;48.116;11.580;2023-02-18T08:48:45;2.53;;;0.60;;
14021;SDS011;7086;48.116;11.580;2023-02-18T08:51:30;3.03;;;0.80;;
14021;SDS011;7086;48.116;11.580;2023-02-18T08:54:06;3.33;;;1.05;;
14021;SDS011;7086;48.116;11.580;2023-02-18T08:56:47;1.92;;;0.80;;
14021;SDS011;7086;48.116;11.580;2023-02-18T08:59:15;0.70;;;0.70;;
14021;SDS011;7086;48.116;11.580;2023-02-18T09:01:43;5.35;;;1.20;;
14021;SDS011;7086;48.116;11.580;2023-02-18T09:04:12;3.70;;;0.70;;
14021;SDS011;7086;48.116;11.580;2023-02-18T09:06:42;3.70;;;0.82;;
14021;SDS011;7086;48.116;11.580;2023-02-18T09:15:44;4.72;;;1.13;;
14021;SDS011;7086;48.116;11.580;2023-02-18T09:18:34;3.38;;;1.48;;
14021;SDS011;7086;48.116;11.580;2023-02-18T09:21:04;3.75;;;1.02;;
14021;SDS011;7086;48.116;11.580;2023-02-18T09:23:47;5.63;;;1.08;;
14021;SDS011;7086;48.116;11.580;2023-02-18T09:26:18;2.95;;;1.10;;
14021;SDS011;7086;48.116;11.580;2023-02-18T09:28:51;2.25;;;0.70;;
14021;SDS011;7086;48.116;11.580;2023-02-18T09:31:22;2.22;;;1.10;;
14021;SDS011;7086;48.116;11.580;2023-02-18T09:33:53;2.03;;;1.10;;
14021;SDS011;7086;48.116;11.580;2023-02-18T09:36:30;2.28;;;0.90;;
14021;SDS011;7086;48.116;11.580;2023-02-18T09:39:04;0.95;;;0.75;;
14021;SDS011;7086;48.116;11.580;2023-02-18T09:41:38;4.10;;;1.27;;
14021;SDS011;7086;48.116;11.580;2023-02-18T09:47:04;1.38;;;1.27;;
14021;SDS011;7086;48.116;11.580;2023-02-18T09:49:39;0.80;;;0.80;;
14021;SDS011;7086;48.116;11.580;2023-02-18T09:52:13;1.67;;;1.58;;
14021;SDS011;7086;48.116;11.580;2023-02-18T09:54:50;2.15;;;1.10;;
14021;SDS011;7086;48.116;11.580;2023-02-18T09:57:23;2.40;;;0.60;;
14021;SDS011;7086;48.116;11.580;2023-02-18T10:00:23;1.45;;;0.70;;
14021;SDS011;7086;48.116;11.580;2023-02-18T10:03:04;3.88;;;0.60;;
14021;SDS011;7086;48.116;11.580;2023-02-18T10:05:55;1.02;;;0.70;;
14021;SDS011;7086;48.116;11.580;2023-02-18T10:08:35;0.45;;;0.40;;
14021;SDS011;7086;48.116;11.580;2023-02-18T10:11:23;1.95;;;0.70;;
14021;SDS011;7086;48.116;11.580;2023-02-18T10:13:58;0.50;;;0.50;;
14021;SDS011;7086;48.116;11.580;2023-02-18T10:16:34;0.50;;;0.43;;
14021;SDS011;7086;48.116;11.580;2023-02-18T10:19:03;1.85;;;0.82;;
14021;SDS011;7086;48.116;11.580;2023-02-18T10:21:47;1.52;;;1.42;;
14021;SDS011;7086;48.116;11.580;2023-02-18T10:24:24;1.00;;;0.90;;
14021;SDS011;7086;48.116;11.580;2023-02-18T10:27:23;0.50;;;0.50;;
14021;SDS011;7086;48.116;11.580;2023-02-18T10:30:20;3.30;;;0.80;;
14021;SDS011;7086;48.116;11.580;2023-02-18T10:32:58;0.60;;;0.60;;
14021;SDS011;7086;48.116;11.580;2023-02-18T10:35:48;1.80;;;1.17;;
14021;SDS011;7086;48.116;11.580;2023-02-18T10:38:25;1.55;;;0.77;;
14021;SDS011;7086;48.116;11.580;2023-02-18T10:41:25;1.02;;;0.68;;
14021;SDS011;7086;48.116;11.580;2023-02-18T10:44:22;2.70;;;0.70;;
14021;SDS011;7086;48.116;11.580;2023-02-18T10:47:10;0.50;;;0.50;;
14021;SDS011;7086;48.116;11.580;2023-02-18T10:53:12;0.52;;;0.52;;
14021;SDS011;7086;48.116;11.580;2023-02-18T10:56:41;1.08;;;0.82;;
14021;SDS011;7086;48.116;11.580;2023-02-18T10:59:18;0.73;;;0.70;;
14021;SDS011;7086;48.116;11.580;2023-02-18T11:02:12;0.57;;;0.57;;
14021;SDS011;7086;48.116;11.580;2023-02-18T11:05:33;1.13;;;0.60;;
14021;SDS011;7086;48.116;11.580;2023-02-18T11:08:21;6.30;;;1.50;;
14021;SDS011;7086;48.116;11.580;2023-02-18T11:11:22;1.25;;;1.00;;
14021;SDS011;7086;48.116;11.580;2023-02-18T13:46:52;0.50;;;0.50;;
14021;SDS011;7086;48.116;11.580;2023-02-18T13:49:25;0.70;;;0.70;;
14021;SDS011;7086;48.116;11.580;2023-02-18T13:57:24;0.88;;;0.60;;
14021;SDS011;7086;48.116;11.580;2023-02-18T14:00:13;0.75;;;0.75;;
14021;SDS011;7086;48.116;11.580;2023-02-18T14:13:20;1.63;;;0.80;;
14021;SDS011;7086;48.116;11.580;2023-02-18T14:21:33;1.15;;;0.65;;
14021;SDS011;7086;48.116;11.580;2023-02-18T14:24:09;0.90;;;0.55;;
14021;SDS011;7086;48.116;11.580;2023-02-18T14:27:13;1.25;;;0.60;;
14021;SDS011;7086;48.116;11.580;2023-02-18T14:29:42;1.25;;;0.95;;
14021;SDS011;7086;48.116;11.580;2023-02-18T14:32:15;4.70;;;1.05;;
14021;SDS011;7086;48.116;11.580;2023-02-18T14:35:07;2.08;;;0.65;;
14021;SDS011;7086;48.116;11.580;2023-02-18T14:44:23;2.15;;;0.60;;
14021;SDS011;7086;48.116;11.580;2023-02-18T14:47:32;0.70;;;0.70;;
14021;SDS011;7086;48.116;11.580;2023-02-18T14:50:34;1.42;;;0.60;;
14021;SDS011;7086;48.116;11.580;2023-02-18T14:53:23;1.25;;;0.70;;
14021;SDS011;7086;48.116;11.580;2023-02-18T14:56:15;3.03;;;0.80;;
14021;SDS011;7086;48.116;11.580;2023-02-18T14:59:23;1.73;;;0.73;;
14021;SDS011;7086;48.116;11.580;2023-02-18T15:01:56;1.05;;;0.80;;
14021;SDS011;7086;48.116;11.580;2023-02-18T15:04:24;2.00;;;0.60;;
14021;SDS011;7086;48.116;11.580;2023-02-18T15:07:08;0.80;;;0.80;;
14021;SDS011;7086;48.116;11.580;2023-02-18T15:09:51;0.70;;;0.70;;
14021;SDS011;7086;48.116;11.580;2023-02-18T15:12:34;1.90;;;0.63;;
14021;SDS011;7086;48.116;11.580;2023-02-18T15:18:11;0.70;;;0.70;;
14021;SDS011;7086;48.116;11.580;2023-02-18T15:20:50;0.80;;;0.80;;
14021;SDS011;7086;48.116;11.580;2023-02-18T15:23:35;0.75;;;0.60;;
14021;SDS011;7086;48.116;11.580;2023-02-18T15:26:19;0.60;;;0.60;;
14021;SDS011;7086;48.116;11.580;2023-02-18T15:28:53;0.60;;;0.60;;
14021;SDS011;7086;48.116;11.580;2023-02-18T15:34:35;0.68;;;0.68;;
14021;SDS011;7086;48.116;11.580;2023-02-18T15:37:22;0.65;;;0.60;;
14021;SDS011;7086;48.116;11.580;2023-02-18T15:39:53;0.70;;;0.70;;
14021;SDS011;7086;48.116;11.580;2023-02-18T15:42:35;0.98;;;0.98;;
14021;SDS011;7086;48.116;11.580;2023-02-18T15:45:12;0.43;;;0.43;;
14021;SDS011;7086;48.116;11.580;2023-02-18T15:51:09;1.75;;;0.70;;
14021;SDS011;7086;48.116;11.580;2023-02-18T15:53:43;1.08;;;0.52;;
14021;SDS011;7086;48.116;11.580;2023-02-18T15:56:17;2.75;;;0.60;;
14021;SDS011;7086;48.116;11.580;2023-02-18T15:59:18;0.65;;;0.50;;
14021;SDS011;7086;48.116;11.580;2023-02-18T16:01:54;1.50;;;0.70;;
14021;SDS011;7086;48.116;11.580;2023-02-18T16:08:24;0.50;;;0.50;;
14021;SDS011;7086;48.116;11.580;2023-02-18T16:16:23;0.98;;;0.50;;
14021;SDS011;7086;48.116;11.580;2023-02-18T16:25:05;0.60;;;0.60;;
14021;SDS011;7086;48.116;11.580;2023-02-18T16:27:48;0.90;;;0.90;;
14021;SDS011;7086;48.116;11.580;2023-02-18T16:30:22;0.57;;;0.57;;
14021;SDS011;7086;48.116;11.580;2023-02-18T16:32:54;4.90;;;0.60;;
14021;SDS011;7086;48.116;11.580;2023-02-18T16:35:36;0.68;;;0.63;;
14021;SDS011;7086;48.116;11.580;2023-02-18T16:38:20;1.45;;;0.50;;
14021;SDS011;7086;48.116;11.580;2023-02-18T16:47:09;0.60;;;0.60;;
14021;SDS011;7086;48.116;11.580;2023-02-18T16:49:51;0.47;;;0.47;;
14021;SDS011;7086;48.116;11.580;2023-02-18T16:52:38;0.60;;;0.60;;
14021;SDS011;7086;48.116;11.580;2023-02-18T16:55:20;0.60;;;0.60;;
14021;SDS011;7086;48.116;11.580;2023-02-18T16:58:06;2.90;;;1.00;;
14021;SDS011;7086;48.116;11.580;2023-02-18T17:03:57;0.52;;;0.52;;
14021;SDS011;7086;48.116;11.580;2023-02-18T17:06:40;0.63;;;0.60;;
14021;SDS011;7086;48.116;11.580;2023-02-18T17:09:30;0.70;;;0.70;;
14021;SDS011;7086;48.116;11.580;2023-02-18T17:12:32;0.75;;;0.75;;
14021;SDS011;7086;48.116;11.580;2023-02-18T17:15:37;0.60;;;0.60;;
14021;SDS011;7086;48.116;11.580;2023-02-18T17:18:11;0.80;;;0.80;;
14021;SDS011;7086;48.116;11.580;2023-02-18T17:20:39;0.70;;;0.70;;
14021;SDS011;7086;48.116;11.580;2023-02-18T17:23:17;0.95;;;0.60;;
14021;SDS011;7086;48.116;11.580;2023-02-18T17:26:02;0.70;;;0.70;;
14021;SDS011;7086;48.116;11.580;2023-02-18T17:28:49;0.80;;;0.80;;
14021;SDS011;7086;48.116;11.580;2023-02-18T17:31:33;1.05;;;0.80;;
14021;SDS011;7086;48.116;11.580;2023-02-18T17:34:13;1.02;;;0.70;;
14021;SDS011;7086;48.116;11.580;2023-02-18T17:37:03;0.65;;;0.65;;
14021;SDS011;7086;48.116;11.580;2023-02-18T17:42:11;1.30;;;0.80;;
14021;SDS011;7086;48.116;11.580;2023-02-18T17:44:40;0.90;;;0.70;;
14021;SDS011;7086;48.116;11.580;2023-02-18T17:47:11;1.60;;;0.85;;
14021;SDS011;7086;48.116;11.580;2023-02-18T17:52:50;0.80;;;0.80;;
14021;SDS011;7086;48.116;11.580;2023-02-18T17:55:34;0.80;;;0.80;;
14021;SDS011;7086;48.116;11.580;2023-02-18T17:58:07;0.85;;;0.80;;
14021;SDS011;7086;48.116;11.580;2023-02-18T18:00:49;0.68;;;0.68;;
14021;SDS011;7086;48.116;11.580;2023-02-18T18:03:33;1.00;;;1.00;;
14021;SDS011;7086;48.116;11.580;2023-02-18T18:06:08;0.65;;;0.65;;
14021;SDS011;7086;48.116;11.580;2023-02-18T18:08:44;0.68;;;0.68;;
14021;SDS011;7086;48.116;11.580;2023-02-18T18:11:17;0.90;;;0.90;;
14021;SDS011;7086;48.116;11.580;2023-02-18T18:13:49;0.70;;;0.70;;
14021;SDS011;7086;48.116;11.580;2023-02-18T18:16:19;0.63;;;0.63;;
14021;SDS011;7086;48.116;11.580;2023-02-18T18:18:48;0.57;;;0.57;;
14021;SDS011;7086;48.116;11.580;2023-02-18T18:21:20;0.70;;;0.70;;
14021;SDS011;7086;48.116;11.580;2023-02-18T18:24:01;0.90;;;0.90;;
14021;SDS011;7086;48.116;11.580;2023-02-18T18:26:30;0.73;;;0.73;;
14021;SDS011;7086;48.116;11.580;2023-02-18T18:28:58;1.05;;;0.98;;
14021;SDS011;7086;48.116;11.580;2023-02-18T18:31:32;1.02;;;1.02;;
14021;SDS011;7086;48.116;11.580;2023-02-18T18:34:14;0.70;;;0.70;;
14021;SDS011;7086;48.116;11.580;2023-02-18T18:39:57;0.93;;;0.93;;
14021;SDS011;7086;48.116;11.580;2023-02-18T18:42:27;1.67;;;0.98;;
14021;SDS011;7086;48.116;11.580;2023-02-18T18:45:12;0.88;;;0.70;;
14021;SDS011;7086;48.116;11.580;2023-02-18T18:47:51;1.25;;;0.73;;
14021;SDS011;7086;48.116;11.580;2023-02-18T18:50:21;0.95;;;0.88;;
14021;SDS011;7086;48.116;11.580;2023-02-18T18:53:04;1.00;;;0.90;;
14021;SDS011;7086;48.116;11.580;2023-02-18T18:55:41;0.90;;;0.90;;
14021;SDS011;7086;48.116;11.580;2023-02-18T18:58:14;1.17;;;0.93;;
14021;SDS011;7086;48.116;11.580;2023-02-18T19:00:45;0.77;;;0.77;;
14021;SDS011;7086;48.116;11.580;2023-02-18T19:03:24;0.90;;;0.90;;
14021;SDS011;7086;48.116;11.580;2023-02-18T19:06:08;0.70;;;0.70;;
14021;SDS011;7086;48.116;11.580;2023-02-18T19:08:41;0.95;;;0.90;;
14021;SDS011;7086;48.116;11.580;2023-02-18T19:11:12;2.90;;;2.08;;
14021;SDS011;7086;48.116;11.580;2023-02-18T19:13:43;4.35;;;3.00;;
14021;SDS011;7086;48.116;11.580;2023-02-18T19:16:16;2.95;;;2.22;;
14021;SDS011;7086;48.116;11.580;2023-02-18T19:18:50;1.30;;;1.30;;
14021;SDS011;7086;48.116;11.580;2023-02-18T19:21:20;2.55;;;1.90;;
14021;SDS011;7086;48.116;11.580;2023-02-18T19:23:52;1.83;;;1.73;;
14021;SDS011;7086;48.116;11.580;2023-02-18T19:26:24;1.98;;;1.88;;
14021;SDS011;7086;48.116;11.580;2023-02-18T19:28:53;2.40;;;2.00;;
14021;SDS011;7086;48.116;11.580;2023-02-18T19:31:24;5.00;;;2.40;;
14021;SDS011;7086;48.116;11.580;2023-02-18T19:33:54;4.95;;;2.83;;
14021;SDS011;7086;48.116;11.580;2023-02-18T19:36:24;1.73;;;1.60;;
14021;SDS011;7086;48.116;11.580;2023-02-18T19:39:08;2.10;;;2.00;;
14021;SDS011;7086;48.116;11.580;2023-02-18T19:41:37;1.38;;;1.27;;
14021;SDS011;7086;48.116;11.580;2023-02-18T19:44:05;1.20;;;1.10;;
14021;SDS011;7086;48.116;11.580;2023-02-18T19:46:46;1.80;;;1.70;;
14021;SDS011;7086;48.116;11.580;2023-02-18T19:49:15;1.27;;;1.27;;
14021;SDS011;7086;48.116;11.580;2023-02-18T19:51:43;1.30;;;1.20;;
14021;SDS011;7086;48.116;11.580;2023-02-18T19:54:30;1.83;;;1.38;;
14021;SDS011;7086;48.116;11.580;2023-02-18T19:57:13;1.40;;;1.30;;
14021;SDS011;7086;48.116;11.580;2023-02-18T19:59:41;1.30;;;1.20;;
14021;SDS011;7086;48.116;11.580;2023-02-18T20:02:26;0.90;;;0.90;;
14021;SDS011;7086;48.116;11.580;2023-02-18T20:04:57;0.90;;;0.90;;